createdAt,value
2018-08-11T00:00:22.914Z,16.85
2018-08-11T00:02:52.093Z,16.86
2018-08-11T00:05:22.040Z,16.78
2018-08-11T00:07:53.329Z,16.70
2018-08-11T00:10:22.577Z,16.67
2018-08-11T00:12:52.040Z,16.64
2018-08-11T00:15:22.993Z,16.64
2018-08-11T00:17:53.035Z,16.75
2018-08-11T00:20:27.137Z,16.66
2018-08-11T00:22:56.380Z,16.46
2018-08-11T00:25:27.201Z,16.46
2018-08-11T00:27:58.322Z,16.49
2018-08-11T00:30:27.513Z,16.39
2018-08-11T00:32:59.244Z,16.39
2018-08-11T00:35:29.997Z,16.38
2018-08-11T00:38:01.386Z,16.33
2018-08-11T00:40:30.673Z,16.28
2018-08-11T00:43:01.562Z,16.20
2018-08-11T00:45:32.305Z,16.18
2018-08-11T00:48:02.295Z,16.26
2018-08-11T00:50:37.441Z,16.31
2018-08-11T00:53:07.491Z,16.63
2018-08-11T00:55:38.609Z,16.58
2018-08-11T00:58:07.581Z,16.71
2018-08-11T01:00:38.180Z,16.74
2018-08-11T01:03:09.125Z,16.74
2018-08-11T01:05:38.970Z,16.69
2018-08-11T01:08:09.696Z,16.63
2018-08-11T01:10:40.272Z,16.53
2018-08-11T01:13:09.460Z,16.62
2018-08-11T01:15:40.669Z,16.54
2018-08-11T01:18:11.450Z,16.48
2018-08-11T01:20:40.599Z,16.60
2018-08-11T01:23:10.408Z,16.56
2018-08-11T01:25:41.272Z,16.46
2018-08-11T01:28:10.550Z,16.38
2018-08-11T01:30:40.090Z,16.37
2018-08-11T01:33:09.181Z,16.33
2018-08-11T01:35:39.896Z,16.35
2018-08-11T01:38:09.116Z,16.43
2018-08-11T01:40:39.933Z,16.35
2018-08-11T01:43:09.098Z,16.60
2018-08-11T01:45:38.182Z,16.53
2018-08-11T01:48:09.223Z,16.50
2018-08-11T01:50:40.382Z,16.47
2018-08-11T01:53:09.478Z,16.47
2018-08-11T01:55:40.567Z,16.44
2018-08-11T01:58:09.713Z,16.31
2018-08-11T02:00:38.816Z,16.19
2018-08-11T02:03:09.418Z,16.18
2018-08-11T02:05:40.432Z,16.20
2018-08-11T02:08:09.571Z,16.08
2018-08-11T02:10:41.029Z,16.04
2018-08-11T02:13:11.862Z,15.98
2018-08-11T02:15:41.053Z,15.99
2018-08-11T02:18:11.053Z,15.95
2018-08-11T02:20:42.096Z,15.86
2018-08-11T02:23:11.270Z,15.85
2018-08-11T02:25:41.526Z,15.81
2018-08-11T02:28:12.703Z,15.75
2018-08-11T02:30:43.296Z,15.75
2018-08-11T02:33:12.449Z,15.85
2018-08-11T02:35:43.473Z,15.91
2018-08-11T02:38:12.637Z,15.86
2018-08-11T02:40:41.835Z,15.87
2018-08-11T02:43:11.042Z,15.85
2018-08-11T02:45:40.093Z,15.93
2018-08-11T02:48:09.126Z,15.90
2018-08-11T02:50:38.168Z,15.98
2018-08-11T02:53:07.468Z,15.92
2018-08-11T02:55:37.967Z,15.85
2018-08-11T02:58:07.128Z,15.85
2018-08-11T03:00:36.448Z,15.86
2018-08-11T03:03:07.450Z,15.79
2018-08-11T03:05:36.761Z,15.78
2018-08-11T03:08:05.976Z,15.82
2018-08-11T03:10:35.098Z,15.79
2018-08-11T03:13:04.276Z,15.73
2018-08-11T03:15:33.363Z,15.62
2018-08-11T03:18:02.533Z,15.56
2018-08-11T03:20:32.603Z,15.63
2018-08-11T03:23:01.852Z,15.61
2018-08-11T03:25:32.667Z,15.50
2018-08-11T03:28:03.416Z,15.49
2018-08-11T03:30:34.821Z,15.50
2018-08-11T03:33:05.711Z,15.37
2018-08-11T03:35:36.069Z,15.38
2018-08-11T03:38:06.664Z,15.32
2018-08-11T03:40:37.184Z,15.30
2018-08-11T03:43:06.621Z,15.29
2018-08-11T03:45:37.643Z,15.28
2018-08-11T03:48:07.987Z,15.31
2018-08-11T03:50:38.941Z,15.31
2018-08-11T03:53:08.292Z,15.25
2018-08-11T03:55:37.489Z,15.18
2018-08-11T03:58:06.612Z,15.19
2018-08-11T04:00:35.715Z,15.17
2018-08-11T04:03:06.605Z,15.17
2018-08-11T04:05:37.761Z,15.15
2018-08-11T04:08:06.912Z,15.14
2018-08-11T04:10:36.088Z,15.19
2018-08-11T04:13:05.197Z,15.21
2018-08-11T04:15:33.987Z,15.16
2018-08-11T04:18:03.082Z,15.19
2018-08-11T04:20:32.264Z,15.12
2018-08-11T04:23:01.441Z,15.17
2018-08-11T04:25:31.069Z,15.20
2018-08-11T04:28:00.275Z,15.19
2018-08-11T04:30:29.382Z,15.18
2018-08-11T04:32:58.448Z,15.32
2018-08-11T04:35:27.568Z,15.31
2018-08-11T04:37:56.546Z,15.30
2018-08-11T04:40:25.563Z,15.32
2018-08-11T04:42:54.545Z,15.34
2018-08-11T04:45:26.297Z,15.36
2018-08-11T04:47:55.488Z,15.42
2018-08-11T04:50:26.492Z,15.46
2018-08-11T04:52:57.704Z,15.49
2018-08-11T04:55:28.594Z,15.44
2018-08-11T04:57:57.911Z,15.41
2018-08-11T05:00:28.418Z,15.35
2018-08-11T05:02:58.316Z,15.34
2018-08-11T05:05:28.651Z,15.44
2018-08-11T05:07:59.657Z,15.41
2018-08-11T05:10:28.814Z,15.28
2018-08-11T05:12:57.916Z,15.21
2018-08-11T05:15:28.922Z,15.28
2018-08-11T05:17:59.992Z,15.26
2018-08-11T05:20:30.881Z,15.16
2018-08-11T05:23:01.555Z,15.38
2018-08-11T05:25:33.499Z,15.38
2018-08-11T05:28:02.733Z,15.49
2018-08-11T05:30:34.030Z,15.49
2018-08-11T05:33:03.677Z,15.51
2018-08-11T05:35:34.418Z,15.59
2018-08-11T05:38:05.021Z,15.71
2018-08-11T05:40:35.034Z,15.79
2018-08-11T05:43:04.380Z,15.87
2018-08-11T05:45:33.453Z,16.03
2018-08-11T05:48:02.508Z,16.18
2018-08-11T05:50:31.744Z,16.30
2018-08-11T05:53:00.865Z,16.40
2018-08-11T05:55:32.058Z,16.39
2018-08-11T05:58:01.516Z,16.44
2018-08-11T06:00:32.795Z,16.47
2018-08-11T06:03:03.419Z,16.51
2018-08-11T06:05:32.364Z,16.57
2018-08-11T06:08:01.654Z,16.64
2018-08-11T06:10:32.871Z,16.67
2018-08-11T06:13:02.241Z,16.79
2018-08-11T06:15:33.488Z,16.88
2018-08-11T06:18:03.621Z,17.14
2018-08-11T06:20:34.628Z,17.30
2018-08-11T06:23:05.980Z,17.36
2018-08-11T06:25:35.228Z,17.38
2018-08-11T06:28:05.529Z,17.52
2018-08-11T06:30:34.716Z,17.46
2018-08-11T06:33:05.481Z,17.46
2018-08-11T06:35:37.698Z,17.43
2018-08-11T06:38:06.672Z,17.36
2018-08-11T06:40:37.094Z,17.30
2018-08-11T06:43:07.977Z,17.33
2018-08-11T06:45:37.614Z,17.33
2018-08-11T06:48:08.487Z,17.40
2018-08-11T06:50:39.433Z,17.42
2018-08-11T06:53:08.714Z,17.59
2018-08-11T06:55:41.417Z,18.32
2018-08-11T06:58:10.687Z,19.78
2018-08-11T07:00:40.918Z,21.05
2018-08-11T07:03:12.341Z,22.34
2018-08-11T07:05:43.460Z,23.43
2018-08-11T07:08:14.499Z,23.18
2018-08-11T07:10:44.555Z,23.30
2018-08-11T07:13:15.665Z,23.19
2018-08-11T07:15:44.801Z,24.89
2018-08-11T07:18:14.104Z,25.90
2018-08-11T07:20:44.410Z,24.98
2018-08-11T07:23:14.007Z,25.33
2018-08-11T07:25:44.682Z,24.91
2018-08-11T07:28:15.689Z,24.84
2018-08-11T07:30:44.840Z,24.67
2018-08-11T07:33:14.286Z,25.64
2018-08-11T07:35:43.580Z,24.82
2018-08-11T07:38:12.837Z,23.97
2018-08-11T07:40:42.619Z,23.36
2018-08-11T07:43:12.180Z,24.45
2018-08-11T07:45:41.716Z,23.85
2018-08-11T07:48:12.117Z,23.59
2018-08-11T07:50:41.421Z,23.85
2018-08-11T07:53:10.470Z,23.99
2018-08-11T07:55:39.975Z,24.80
2018-08-11T07:58:09.392Z,26.20
2018-08-11T08:00:38.646Z,27.43
2018-08-11T08:03:08.190Z,26.66
2018-08-11T08:05:37.460Z,26.36
2018-08-11T08:08:07.176Z,27.05
2018-08-11T08:10:37.119Z,27.64
2018-08-11T08:13:06.257Z,27.93
2018-08-11T08:15:35.523Z,28.15
2018-08-11T08:18:04.902Z,28.30
2018-08-11T08:20:34.014Z,28.16
2018-08-11T08:23:03.145Z,28.37
2018-08-11T08:25:32.205Z,27.73
2018-08-11T08:28:01.439Z,26.50
2018-08-11T08:30:30.765Z,26.33
2018-08-11T08:33:00.005Z,26.67
2018-08-11T08:35:29.089Z,25.90
2018-08-11T08:37:58.185Z,25.26
2018-08-11T08:40:27.273Z,23.91
2018-08-11T08:42:56.339Z,23.28
2018-08-11T08:45:25.461Z,22.84
2018-08-11T08:47:54.581Z,22.70
2018-08-11T08:50:23.763Z,22.62
2018-08-11T08:52:52.972Z,23.08
2018-08-11T08:55:22.312Z,22.80
2018-08-11T08:57:51.509Z,22.19
2018-08-11T09:00:20.659Z,21.83
2018-08-11T09:02:49.853Z,22.19
2018-08-11T09:05:18.996Z,22.05
2018-08-11T09:07:48.192Z,22.44
2018-08-11T09:10:17.503Z,21.98
2018-08-11T09:12:46.541Z,22.18
2018-08-11T09:15:15.685Z,22.34
2018-08-11T09:17:44.820Z,21.92
2018-08-11T09:20:13.935Z,21.76
2018-08-11T09:22:43.176Z,21.51
2018-08-11T09:25:12.505Z,21.56
2018-08-11T09:27:41.625Z,21.66
2018-08-11T09:30:10.885Z,21.58
2018-08-11T09:32:42.988Z,21.49
2018-08-11T09:35:12.202Z,21.29
2018-08-11T09:37:41.449Z,21.35
2018-08-11T09:40:10.676Z,21.59
2018-08-11T09:42:39.841Z,22.06
2018-08-11T09:45:08.977Z,22.50
2018-08-11T09:47:38.043Z,22.36
2018-08-11T09:50:07.216Z,22.42
2018-08-11T09:52:36.402Z,22.58
2018-08-11T09:55:05.526Z,22.22
2018-08-11T09:57:34.736Z,21.99
2018-08-11T10:00:03.965Z,21.45
2018-08-11T10:02:33.148Z,21.29
2018-08-11T10:05:02.313Z,21.84
2018-08-11T10:07:31.341Z,22.38
2018-08-11T10:10:00.344Z,22.82
2018-08-11T10:12:29.441Z,23.26
2018-08-11T10:14:58.537Z,23.65
2018-08-11T10:17:27.713Z,23.79
2018-08-11T10:19:56.693Z,23.80
2018-08-11T10:22:25.811Z,24.02
2018-08-11T10:24:55.001Z,24.26
2018-08-11T10:27:23.955Z,24.57
2018-08-11T10:29:53.093Z,24.14
2018-08-11T10:32:22.242Z,23.76
2018-08-11T10:34:51.507Z,23.56
2018-08-11T10:37:20.565Z,23.44
2018-08-11T10:39:49.715Z,23.62
2018-08-11T10:42:18.759Z,23.88
2018-08-11T10:44:47.784Z,23.35
2018-08-11T10:47:16.862Z,22.96
2018-08-11T10:49:46.072Z,22.99
2018-08-11T10:52:15.177Z,22.74
2018-08-11T10:54:44.305Z,22.48
2018-08-11T10:57:13.450Z,23.02
2018-08-11T10:59:42.577Z,23.36
2018-08-11T11:02:11.742Z,23.52
2018-08-11T11:04:40.898Z,23.43
2018-08-11T11:07:09.983Z,23.38
2018-08-11T11:09:39.132Z,23.57
2018-08-11T11:12:08.481Z,24.02
2018-08-11T11:14:37.653Z,24.12
2018-08-11T11:17:06.841Z,24.19
2018-08-11T11:19:36.096Z,24.28
2018-08-11T11:22:05.329Z,24.41
2018-08-11T11:24:34.472Z,24.50
2018-08-11T11:27:03.727Z,24.82
2018-08-11T11:29:32.935Z,24.49
2018-08-11T11:32:01.950Z,24.39
2018-08-11T11:34:31.104Z,24.37
2018-08-11T11:37:00.313Z,24.57
2018-08-11T11:39:29.466Z,24.31
2018-08-11T11:41:58.665Z,24.00
2018-08-11T11:44:27.806Z,24.24
2018-08-11T11:46:56.898Z,24.06
2018-08-11T11:49:26.131Z,23.96
2018-08-11T11:51:55.232Z,24.56
2018-08-11T11:54:24.506Z,25.05
2018-08-11T11:56:53.633Z,25.16
2018-08-11T11:59:22.788Z,25.21
2018-08-11T12:01:51.938Z,25.10
2018-08-11T12:04:21.087Z,25.07
2018-08-11T12:06:50.053Z,25.50
2018-08-11T12:09:19.277Z,25.94
2018-08-11T12:11:48.569Z,26.00
2018-08-11T12:14:17.704Z,25.94
2018-08-11T12:16:46.898Z,25.93
2018-08-11T12:19:16.105Z,25.88
2018-08-11T12:21:45.248Z,25.57
2018-08-11T12:24:14.463Z,25.95
2018-08-11T12:26:43.525Z,26.11
2018-08-11T12:29:12.640Z,26.12
2018-08-11T12:31:41.844Z,26.20
2018-08-11T12:34:10.925Z,26.58
2018-08-11T12:36:40.188Z,27.27
2018-08-11T12:39:11.060Z,27.60
2018-08-11T12:41:40.900Z,26.50
2018-08-11T12:44:10.551Z,25.86
2018-08-11T12:46:39.742Z,25.51
2018-08-11T12:49:08.885Z,25.20
2018-08-11T12:51:38.357Z,24.91
2018-08-11T12:54:07.583Z,24.52
2018-08-11T12:56:36.724Z,24.51
2018-08-11T12:59:05.860Z,25.00
2018-08-11T13:01:34.919Z,25.45
2018-08-11T13:04:04.276Z,26.13
2018-08-11T13:06:33.582Z,26.40
2018-08-11T13:09:04.302Z,26.68
2018-08-11T13:11:40.265Z,27.29
2018-08-11T13:14:09.374Z,27.38
2018-08-11T13:16:38.469Z,27.22
2018-08-11T13:19:07.623Z,27.29
2018-08-11T13:21:37.018Z,27.47
2018-08-11T13:24:06.149Z,27.45
2018-08-11T13:26:35.354Z,27.54
2018-08-11T13:29:04.484Z,26.60
2018-08-11T13:31:33.745Z,26.14
2018-08-11T13:34:02.945Z,25.50
2018-08-11T13:36:32.042Z,25.19
2018-08-11T13:39:01.131Z,25.09
2018-08-11T13:41:41.868Z,25.56
2018-08-11T13:44:10.993Z,25.92
2018-08-11T13:46:40.260Z,26.15
2018-08-11T13:49:10.049Z,26.52
2018-08-11T13:51:39.476Z,25.95
2018-08-11T13:54:08.723Z,25.92
2018-08-11T13:56:38.664Z,26.30
2018-08-11T13:59:08.193Z,26.66
2018-08-11T14:01:37.397Z,26.92
2018-08-11T14:04:06.529Z,27.20
2018-08-11T14:06:35.709Z,26.80
2018-08-11T14:09:06.244Z,26.37
2018-08-11T14:11:35.337Z,25.78
2018-08-11T14:14:04.384Z,25.06
2018-08-11T14:16:33.504Z,24.97
2018-08-11T14:19:02.620Z,25.54
2018-08-11T14:21:31.620Z,26.01
2018-08-11T14:24:00.838Z,26.75
2018-08-11T14:26:29.918Z,26.94
2018-08-11T14:28:59.020Z,27.00
2018-08-11T14:31:28.244Z,27.40
2018-08-11T14:33:57.418Z,27.41
2018-08-11T14:36:26.757Z,27.11
2018-08-11T14:38:55.913Z,27.46
2018-08-11T14:41:25.104Z,27.65
2018-08-11T14:43:54.661Z,27.10
2018-08-11T14:46:23.844Z,26.64
2018-08-11T14:48:53.012Z,26.76
2018-08-11T14:51:22.138Z,27.15
2018-08-11T14:53:51.293Z,26.94
2018-08-11T14:56:20.658Z,26.67
2018-08-11T14:58:49.864Z,25.86
2018-08-11T15:01:21.262Z,25.70
2018-08-11T15:03:53.080Z,25.30
2018-08-11T15:06:25.799Z,25.51
2018-08-11T15:08:54.960Z,25.54
2018-08-11T15:11:24.177Z,25.88
2018-08-11T15:13:53.638Z,26.47
2018-08-11T15:16:23.055Z,26.93
2018-08-11T15:18:52.444Z,27.21
2018-08-11T15:21:22.262Z,26.79
2018-08-11T15:23:51.757Z,27.11
2018-08-11T15:26:21.408Z,26.38
2018-08-11T15:28:50.850Z,25.86
2018-08-11T15:31:20.078Z,25.90
2018-08-11T15:33:49.519Z,25.84
2018-08-11T15:36:18.600Z,26.04
2018-08-11T15:38:47.829Z,26.33
2018-08-11T15:41:16.878Z,26.38
2018-08-11T15:43:46.015Z,26.36
2018-08-11T15:46:15.132Z,26.61
2018-08-11T15:48:44.345Z,26.46
2018-08-11T15:51:13.443Z,26.56
2018-08-11T15:53:42.469Z,26.47
2018-08-11T15:56:11.634Z,26.44
2018-08-11T15:58:40.824Z,26.87
2018-08-11T16:01:10.082Z,26.83
2018-08-11T16:03:39.216Z,26.82
2018-08-11T16:06:08.473Z,26.33
2018-08-11T16:08:37.440Z,25.82
2018-08-11T16:11:06.561Z,25.36
2018-08-11T16:13:35.661Z,24.95
2018-08-11T16:16:04.620Z,24.92
2018-08-11T16:18:33.731Z,24.75
2018-08-11T16:21:02.832Z,24.89
2018-08-11T16:23:32.072Z,25.37
2018-08-11T16:26:01.231Z,25.58
2018-08-11T16:28:30.440Z,26.04
2018-08-11T16:30:59.541Z,26.42
2018-08-11T16:33:28.851Z,26.31
2018-08-11T16:35:57.916Z,26.16
2018-08-11T16:38:27.259Z,26.39
2018-08-11T16:40:56.709Z,25.75
2018-08-11T16:43:26.561Z,25.41
2018-08-11T16:45:55.928Z,25.25
2018-08-11T16:48:25.095Z,25.28
2018-08-11T16:50:54.147Z,25.14
2018-08-11T16:53:23.557Z,24.96
2018-08-11T16:55:53.058Z,25.13
2018-08-11T16:58:22.597Z,25.19
2018-08-11T17:00:51.987Z,25.21
2018-08-11T17:03:22.353Z,25.03
2018-08-11T17:05:52.869Z,24.94
2018-08-11T17:08:23.495Z,24.78
2018-08-11T17:10:52.527Z,24.78
2018-08-11T17:13:21.756Z,24.61
2018-08-11T17:15:51.241Z,24.58
2018-08-11T17:18:20.340Z,24.50
2018-08-11T17:20:49.476Z,24.36
2018-08-11T17:23:18.546Z,24.15
2018-08-11T17:25:48.912Z,23.95
2018-08-11T17:28:18.162Z,24.04
2018-08-11T17:30:47.805Z,24.04
2018-08-11T17:33:17.537Z,23.86
2018-08-11T17:35:48.513Z,23.83
2018-08-11T17:38:17.702Z,23.81
2018-08-11T17:40:47.520Z,23.83
2018-08-11T17:43:18.604Z,23.64
2018-08-11T17:45:49.841Z,23.51
2018-08-11T17:48:18.907Z,23.36
2018-08-11T17:50:49.931Z,23.11
2018-08-11T17:53:19.022Z,23.18
2018-08-11T17:55:50.025Z,23.20
2018-08-11T17:58:20.829Z,23.25
2018-08-11T18:00:51.645Z,23.16
2018-08-11T18:03:22.916Z,23.07
2018-08-11T18:05:53.130Z,22.77
2018-08-11T18:08:22.201Z,22.86
2018-08-11T18:10:52.644Z,22.75
2018-08-11T18:13:22.354Z,22.54
2018-08-11T18:15:52.512Z,22.47
2018-08-11T18:18:21.790Z,22.36
2018-08-11T18:20:50.845Z,22.25
2018-08-11T18:23:20.108Z,22.18
2018-08-11T18:25:50.547Z,22.02
2018-08-11T18:28:21.294Z,21.99
2018-08-11T18:30:50.716Z,21.92
2018-08-11T18:33:21.456Z,21.76
2018-08-11T18:35:50.596Z,21.59
2018-08-11T18:38:21.219Z,21.56
2018-08-11T18:40:50.550Z,21.42
2018-08-11T18:43:19.631Z,21.38
2018-08-11T18:45:48.668Z,21.28
2018-08-11T18:48:19.901Z,21.18
2018-08-11T18:50:49.146Z,21.07
2018-08-11T18:53:18.505Z,20.92
2018-08-11T18:55:47.734Z,20.92
2018-08-11T18:58:16.903Z,20.85
2018-08-11T19:00:46.249Z,20.75
2018-08-11T19:03:15.381Z,20.71
2018-08-11T19:05:44.722Z,20.66
2018-08-11T19:08:13.919Z,20.60
2018-08-11T19:10:43.078Z,20.52
2018-08-11T19:13:12.370Z,20.37
2018-08-11T19:15:41.536Z,20.29
2018-08-11T19:18:10.805Z,20.19
2018-08-11T19:20:40.013Z,20.06
2018-08-11T19:23:09.178Z,19.92
2018-08-11T19:25:38.484Z,19.84
2018-08-11T19:28:07.488Z,19.72
2018-08-11T19:30:36.583Z,19.72
2018-08-11T19:33:05.789Z,19.68
2018-08-11T19:35:35.014Z,19.58
2018-08-11T19:38:04.235Z,19.47
2018-08-11T19:40:33.553Z,19.36
2018-08-11T19:43:02.659Z,19.25
2018-08-11T19:45:31.779Z,19.17
2018-08-11T19:48:01.077Z,19.10
2018-08-11T19:50:30.434Z,19.02
2018-08-11T19:52:59.656Z,18.97
2018-08-11T19:55:28.873Z,18.93
2018-08-11T19:57:57.876Z,18.85
2018-08-11T20:00:26.998Z,18.83
2018-08-11T20:02:56.150Z,18.79
2018-08-11T20:05:25.445Z,18.73
2018-08-11T20:07:54.658Z,18.69
2018-08-11T20:10:24.335Z,18.66
2018-08-11T20:12:53.456Z,18.62
2018-08-11T20:15:22.740Z,18.49
2018-08-11T20:17:51.952Z,18.37
2018-08-11T20:20:21.255Z,18.28
2018-08-11T20:22:50.385Z,18.31
2018-08-11T20:25:20.189Z,18.32
2018-08-11T20:27:49.353Z,18.22
2018-08-11T20:30:18.449Z,18.14
2018-08-11T20:32:47.834Z,18.15
2018-08-11T20:35:17.123Z,18.07
2018-08-11T20:37:46.265Z,17.94
2018-08-11T20:40:15.501Z,17.89
2018-08-11T20:42:44.743Z,17.90
2018-08-11T20:45:13.942Z,17.81
2018-08-11T20:47:43.065Z,17.90
2018-08-11T20:50:12.328Z,17.81
2018-08-11T20:52:42.816Z,17.78
2018-08-11T20:55:11.953Z,17.63
2018-08-11T20:57:41.097Z,17.61
2018-08-11T21:00:12.305Z,17.60
2018-08-11T21:02:41.501Z,17.57
2018-08-11T21:05:12.801Z,17.52
2018-08-11T21:07:42.081Z,17.38
2018-08-11T21:10:13.564Z,17.33
2018-08-11T21:12:43.412Z,17.35
2018-08-11T21:15:13.354Z,17.28
2018-08-11T21:17:42.393Z,17.26
2018-08-11T21:20:13.204Z,17.10
2018-08-11T21:22:42.570Z,17.05
2018-08-11T21:25:12.225Z,17.06
2018-08-11T21:27:41.341Z,16.96
2018-08-11T21:30:12.669Z,16.92
2018-08-11T21:32:42.538Z,16.86
2018-08-11T21:35:11.792Z,16.83
2018-08-11T21:37:40.897Z,16.79
2018-08-11T21:40:13.254Z,16.74
2018-08-11T21:42:42.881Z,16.75
2018-08-11T21:45:12.361Z,16.68
2018-08-11T21:47:42.462Z,16.66
2018-08-11T21:50:11.789Z,16.58
2018-08-11T21:52:40.985Z,16.55
2018-08-11T21:55:10.478Z,16.48
2018-08-11T21:57:39.768Z,16.38
2018-08-11T22:00:31.792Z,16.34
2018-08-11T22:03:01.465Z,16.27
2018-08-11T22:05:30.592Z,16.27
2018-08-11T22:08:00.773Z,16.24
2018-08-11T22:10:30.216Z,16.23
2018-08-11T22:12:59.381Z,16.14
2018-08-11T22:15:28.573Z,16.17
2018-08-11T22:17:57.782Z,16.02
2018-08-11T22:20:27.009Z,15.99
2018-08-11T22:22:56.324Z,15.91
2018-08-11T22:25:25.560Z,15.83
2018-08-11T22:27:54.672Z,15.78
2018-08-11T22:30:23.646Z,15.73
2018-08-11T22:32:52.863Z,15.65
2018-08-11T22:35:21.997Z,15.63
2018-08-11T22:37:51.298Z,15.79
2018-08-11T22:40:20.604Z,15.69
2018-08-11T22:42:49.895Z,15.62
2018-08-11T22:45:19.161Z,15.58
2018-08-11T22:47:51.197Z,15.50
2018-08-11T22:50:20.425Z,15.39
2018-08-11T22:52:49.913Z,15.43
2018-08-11T22:55:19.127Z,15.38
2018-08-11T22:57:48.304Z,15.47
2018-08-11T23:00:19.769Z,15.40
2018-08-11T23:02:48.913Z,15.32
2018-08-11T23:05:19.406Z,15.25
2018-08-11T23:07:48.593Z,15.21
2018-08-11T23:10:18.034Z,15.20
2018-08-11T23:12:47.656Z,15.21
2018-08-11T23:15:17.890Z,15.33
2018-08-11T23:17:48.508Z,15.18
2018-08-11T23:20:17.698Z,15.23
2018-08-11T23:22:46.885Z,15.10
2018-08-11T23:25:16.611Z,15.02
2018-08-11T23:27:45.858Z,15.00
2018-08-11T23:30:17.332Z,15.10
2018-08-11T23:32:46.570Z,14.95
2018-08-11T23:35:15.700Z,14.92
2018-08-11T23:37:44.886Z,14.83
2018-08-11T23:40:14.217Z,14.81
2018-08-11T23:42:43.448Z,14.70
2018-08-11T23:45:16.550Z,14.67
2018-08-11T23:47:45.791Z,14.62
2018-08-11T23:50:15.424Z,14.68
2018-08-11T23:52:51.302Z,14.78
2018-08-11T23:55:20.458Z,14.71
2018-08-11T23:57:49.660Z,14.78
